< < Back
Terminal Aerodrome Forecast


Current Version              Previous Versions:   1  2  3  4  5  6  7  8  9  

Terminal Aerodrome Forecast

074
FTUS44 KHUN 251720
TAFHSV
TAF
KHSV 251720Z 2518/2618 VRB04KT P6SM SKC
     FM260000 VRB03KT P6SM SKC
      TEMPO 2610/2613 4SM BR=



Latest METAR

538
SAUS80 KWBC 251900 RRA
MTRHSV
METAR KHSV 251853Z 00000KT 10SM CLR 24/13 A3005 RMK AO2 SLP173
T02440128


USA.gov is the U.S. government's official web portal to all federal, state and local government web resources and services.